sensor_id;sensor_type;location;lat;lon;timestamp;temperature;humidity
44990;DHT22;30723;51.206;3.326;2023-12-22T00:00:51;10.10;99.90
44990;DHT22;30723;51.206;3.326;2023-12-22T00:03:17;10.20;99.90
44990;DHT22;30723;51.206;3.326;2023-12-22T00:05:43;10.20;99.90
44990;DHT22;30723;51.206;3.326;2023-12-22T00:08:09;10.20;99.90
44990;DHT22;30723;51.206;3.326;2023-12-22T00:10:35;10.30;99.90
44990;DHT22;30723;51.206;3.326;2023-12-22T00:13:00;10.20;99.90
44990;DHT22;30723;51.206;3.326;2023-12-22T00:15:26;10.20;99.90
44990;DHT22;30723;51.206;3.326;2023-12-22T00:17:52;10.20;99.90
44990;DHT22;30723;51.206;3.326;2023-12-22T00:20:18;10.20;99.90
44990;DHT22;30723;51.206;3.326;2023-12-22T00:22:44;10.10;99.90
44990;DHT22;30723;51.206;3.326;2023-12-22T00:25:10;10.10;99.90
44990;DHT22;30723;51.206;3.326;2023-12-22T00:27:36;10.10;99.90
44990;DHT22;30723;51.206;3.326;2023-12-22T00:30:01;10.10;99.90
44990;DHT22;30723;51.206;3.326;2023-12-22T00:32:27;10.10;99.90
44990;DHT22;30723;51.206;3.326;2023-12-22T00:34:53;10.10;99.90
44990;DHT22;30723;51.206;3.326;2023-12-22T00:37:19;10.10;99.90
44990;DHT22;30723;51.206;3.326;2023-12-22T00:39:44;10.10;99.90
44990;DHT22;30723;51.206;3.326;2023-12-22T00:42:10;10.10;99.90
44990;DHT22;30723;51.206;3.326;2023-12-22T00:44:36;10.20;99.90
44990;DHT22;30723;51.206;3.326;2023-12-22T00:47:02;10.20;99.90
44990;DHT22;30723;51.206;3.326;2023-12-22T00:49:27;10.30;99.90
44990;DHT22;30723;51.206;3.326;2023-12-22T00:51:53;10.30;99.90
44990;DHT22;30723;51.206;3.326;2023-12-22T00:54:19;10.30;99.90
44990;DHT22;30723;51.206;3.326;2023-12-22T00:56:45;10.30;99.90
44990;DHT22;30723;51.206;3.326;2023-12-22T00:59:11;10.30;99.90
44990;DHT22;30723;51.206;3.326;2023-12-22T01:01:36;10.30;99.90
44990;DHT22;30723;51.206;3.326;2023-12-22T01:04:02;10.40;99.90
44990;DHT22;30723;51.206;3.326;2023-12-22T01:06:28;10.40;99.90
44990;DHT22;30723;51.206;3.326;2023-12-22T01:08:54;10.50;99.90
44990;DHT22;30723;51.206;3.326;2023-12-22T01:11:19;10.50;99.90
44990;DHT22;30723;51.206;3.326;2023-12-22T01:13:45;10.50;99.90
44990;DHT22;30723;51.206;3.326;2023-12-22T01:16:11;10.50;99.90
44990;DHT22;30723;51.206;3.326;2023-12-22T01:18:37;10.50;99.90
44990;DHT22;30723;51.206;3.326;2023-12-22T01:21:05;10.50;99.90
44990;DHT22;30723;51.206;3.326;2023-12-22T01:23:31;10.50;99.90
44990;DHT22;30723;51.206;3.326;2023-12-22T01:25:57;10.50;99.90
44990;DHT22;30723;51.206;3.326;2023-12-22T01:28:22;10.50;99.90
44990;DHT22;30723;51.206;3.326;2023-12-22T01:30:48;10.40;99.90
44990;DHT22;30723;51.206;3.326;2023-12-22T01:33:14;10.40;99.90
44990;DHT22;30723;51.206;3.326;2023-12-22T01:35:40;10.40;99.90
44990;DHT22;30723;51.206;3.326;2023-12-22T01:38:05;10.30;99.90
44990;DHT22;30723;51.206;3.326;2023-12-22T01:40:31;10.10;99.90
44990;DHT22;30723;51.206;3.326;2023-12-22T01:42:57;10.10;99.90
44990;DHT22;30723;51.206;3.326;2023-12-22T01:45:23;10.10;99.90
44990;DHT22;30723;51.206;3.326;2023-12-22T01:47:49;10.00;99.90
44990;DHT22;30723;51.206;3.326;2023-12-22T01:50:15;10.00;99.90
44990;DHT22;30723;51.206;3.326;2023-12-22T01:52:42;10.00;99.90
44990;DHT22;30723;51.206;3.326;2023-12-22T01:55:10;10.00;99.90
44990;DHT22;30723;51.206;3.326;2023-12-22T01:57:37;10.00;99.90
44990;DHT22;30723;51.206;3.326;2023-12-22T02:00:03;9.90;99.90
44990;DHT22;30723;51.206;3.326;2023-12-22T02:02:30;10.00;99.90
44990;DHT22;30723;51.206;3.326;2023-12-22T02:04:57;9.90;99.90
44990;DHT22;30723;51.206;3.326;2023-12-22T02:07:24;9.90;99.90
44990;DHT22;30723;51.206;3.326;2023-12-22T02:09:50;9.80;99.90
44990;DHT22;30723;51.206;3.326;2023-12-22T02:12:15;9.80;99.90
44990;DHT22;30723;51.206;3.326;2023-12-22T02:14:41;9.80;99.90
44990;DHT22;30723;51.206;3.326;2023-12-22T02:20:18;9.80;99.90
44990;DHT22;30723;51.206;3.326;2023-12-22T02:22:44;9.80;99.90
44990;DHT22;30723;51.206;3.326;2023-12-22T02:25:09;9.90;99.90
44990;DHT22;30723;51.206;3.326;2023-12-22T02:27:40;9.90;99.90
44990;DHT22;30723;51.206;3.326;2023-12-22T02:30:32;10.00;99.90
44990;DHT22;30723;51.206;3.326;2023-12-22T02:33:03;10.00;99.90
44990;DHT22;30723;51.206;3.326;2023-12-22T02:35:32;10.00;99.90
44990;DHT22;30723;51.206;3.326;2023-12-22T02:37:59;10.00;99.90
44990;DHT22;30723;51.206;3.326;2023-12-22T02:40:26;10.00;99.90
44990;DHT22;30723;51.206;3.326;2023-12-22T02:42:53;10.00;99.90
44990;DHT22;30723;51.206;3.326;2023-12-22T02:45:19;9.90;99.90
44990;DHT22;30723;51.206;3.326;2023-12-22T02:47:46;9.80;99.90
44990;DHT22;30723;51.206;3.326;2023-12-22T02:50:14;9.60;99.90
44990;DHT22;30723;51.206;3.326;2023-12-22T02:52:40;9.50;99.90
44990;DHT22;30723;51.206;3.326;2023-12-22T02:55:07;9.40;99.90
44990;DHT22;30723;51.206;3.326;2023-12-22T02:57:32;9.40;99.90
44990;DHT22;30723;51.206;3.326;2023-12-22T02:59:58;9.40;99.90
44990;DHT22;30723;51.206;3.326;2023-12-22T03:02:25;9.40;99.90
44990;DHT22;30723;51.206;3.326;2023-12-22T03:04:50;9.40;99.90
44990;DHT22;30723;51.206;3.326;2023-12-22T03:07:16;9.40;99.90
44990;DHT22;30723;51.206;3.326;2023-12-22T03:09:43;9.40;99.90
44990;DHT22;30723;51.206;3.326;2023-12-22T03:12:11;9.40;99.90
44990;DHT22;30723;51.206;3.326;2023-12-22T03:14:37;9.40;99.90
44990;DHT22;30723;51.206;3.326;2023-12-22T03:17:04;9.50;99.90
44990;DHT22;30723;51.206;3.326;2023-12-22T03:19:30;9.50;99.90
44990;DHT22;30723;51.206;3.326;2023-12-22T03:21:57;9.60;99.90
44990;DHT22;30723;51.206;3.326;2023-12-22T03:24:23;9.60;99.90
44990;DHT22;30723;51.206;3.326;2023-12-22T03:26:49;9.60;99.90
44990;DHT22;30723;51.206;3.326;2023-12-22T03:29:15;9.60;99.90
44990;DHT22;30723;51.206;3.326;2023-12-22T03:31:41;9.70;99.90
44990;DHT22;30723;51.206;3.326;2023-12-22T03:34:07;9.70;99.90
44990;DHT22;30723;51.206;3.326;2023-12-22T03:36:33;9.70;99.90
44990;DHT22;30723;51.206;3.326;2023-12-22T03:38:59;9.80;99.90
44990;DHT22;30723;51.206;3.326;2023-12-22T03:41:25;9.80;99.90
44990;DHT22;30723;51.206;3.326;2023-12-22T03:43:51;9.80;99.90
44990;DHT22;30723;51.206;3.326;2023-12-22T03:46:16;9.80;99.90
44990;DHT22;30723;51.206;3.326;2023-12-22T03:48:42;9.80;99.90
44990;DHT22;30723;51.206;3.326;2023-12-22T03:51:08;9.80;99.90
44990;DHT22;30723;51.206;3.326;2023-12-22T03:53:36;9.90;99.90
44990;DHT22;30723;51.206;3.326;2023-12-22T03:56:01;9.90;99.90
44990;DHT22;30723;51.206;3.326;2023-12-22T03:58:27;9.90;99.90
44990;DHT22;30723;51.206;3.326;2023-12-22T04:00:56;9.90;99.90
44990;DHT22;30723;51.206;3.326;2023-12-22T04:03:21;9.90;99.90
44990;DHT22;30723;51.206;3.326;2023-12-22T04:05:47;10.00;99.90
44990;DHT22;30723;51.206;3.326;2023-12-22T04:08:13;10.00;99.90
44990;DHT22;30723;51.206;3.326;2023-12-22T04:10:39;10.00;99.90
44990;DHT22;30723;51.206;3.326;2023-12-22T04:13:05;10.00;99.90
44990;DHT22;30723;51.206;3.326;2023-12-22T04:15:30;10.00;99.90
44990;DHT22;30723;51.206;3.326;2023-12-22T04:17:56;10.10;99.90
44990;DHT22;30723;51.206;3.326;2023-12-22T04:20:23;10.00;99.90
44990;DHT22;30723;51.206;3.326;2023-12-22T04:22:49;10.00;99.90
44990;DHT22;30723;51.206;3.326;2023-12-22T04:25:15;10.00;99.90
44990;DHT22;30723;51.206;3.326;2023-12-22T04:27:41;10.10;99.90
44990;DHT22;30723;51.206;3.326;2023-12-22T04:30:08;10.10;99.90
44990;DHT22;30723;51.206;3.326;2023-12-22T04:32:34;10.10;99.90
44990;DHT22;30723;51.206;3.326;2023-12-22T04:34:59;10.10;99.90
44990;DHT22;30723;51.206;3.326;2023-12-22T04:37:26;10.20;99.90
44990;DHT22;30723;51.206;3.326;2023-12-22T04:39:51;10.20;99.90
44990;DHT22;30723;51.206;3.326;2023-12-22T04:42:17;10.20;99.90
44990;DHT22;30723;51.206;3.326;2023-12-22T04:44:44;10.20;99.90
44990;DHT22;30723;51.206;3.326;2023-12-22T04:47:09;10.20;99.90
44990;DHT22;30723;51.206;3.326;2023-12-22T04:49:35;10.40;99.90
44990;DHT22;30723;51.206;3.326;2023-12-22T04:52:01;10.40;99.90
44990;DHT22;30723;51.206;3.326;2023-12-22T04:54:27;10.40;99.90
44990;DHT22;30723;51.206;3.326;2023-12-22T04:56:52;10.40;99.90
44990;DHT22;30723;51.206;3.326;2023-12-22T04:59:20;10.40;99.90
44990;DHT22;30723;51.206;3.326;2023-12-22T05:01:48;10.40;99.90
44990;DHT22;30723;51.206;3.326;2023-12-22T05:04:14;10.50;99.90
44990;DHT22;30723;51.206;3.326;2023-12-22T05:06:40;10.50;99.90
44990;DHT22;30723;51.206;3.326;2023-12-22T05:09:06;10.50;99.90
44990;DHT22;30723;51.206;3.326;2023-12-22T05:11:32;10.50;99.90
44990;DHT22;30723;51.206;3.326;2023-12-22T05:13:57;10.50;99.90
44990;DHT22;30723;51.206;3.326;2023-12-22T05:16:23;10.50;99.90
44990;DHT22;30723;51.206;3.326;2023-12-22T05:18:49;10.50;99.90
44990;DHT22;30723;51.206;3.326;2023-12-22T05:21:15;10.50;99.90
44990;DHT22;30723;51.206;3.326;2023-12-22T05:23:40;10.60;99.90
44990;DHT22;30723;51.206;3.326;2023-12-22T05:26:06;10.70;99.90
44990;DHT22;30723;51.206;3.326;2023-12-22T05:28:32;10.70;99.90
44990;DHT22;30723;51.206;3.326;2023-12-22T05:30:58;10.70;99.90
44990;DHT22;30723;51.206;3.326;2023-12-22T05:33:24;10.80;99.90
44990;DHT22;30723;51.206;3.326;2023-12-22T05:35:49;10.60;99.90
44990;DHT22;30723;51.206;3.326;2023-12-22T05:38:15;10.70;99.90
44990;DHT22;30723;51.206;3.326;2023-12-22T05:40:41;10.60;99.90
44990;DHT22;30723;51.206;3.326;2023-12-22T05:43:07;10.60;99.90
44990;DHT22;30723;51.206;3.326;2023-12-22T05:45:32;10.70;99.90
44990;DHT22;30723;51.206;3.326;2023-12-22T05:47:58;10.70;99.90
44990;DHT22;30723;51.206;3.326;2023-12-22T05:50:24;10.60;99.90
44990;DHT22;30723;51.206;3.326;2023-12-22T05:52:50;10.60;99.90
44990;DHT22;30723;51.206;3.326;2023-12-22T05:55:15;10.50;99.90
44990;DHT22;30723;51.206;3.326;2023-12-22T05:57:41;10.50;99.90
44990;DHT22;30723;51.206;3.326;2023-12-22T06:00:07;10.30;99.90
44990;DHT22;30723;51.206;3.326;2023-12-22T06:02:35;10.30;99.90
44990;DHT22;30723;51.206;3.326;2023-12-22T06:05:01;10.30;99.90
44990;DHT22;30723;51.206;3.326;2023-12-22T06:07:27;10.30;99.90
44990;DHT22;30723;51.206;3.326;2023-12-22T06:09:52;10.20;99.90
44990;DHT22;30723;51.206;3.326;2023-12-22T06:12:18;10.30;99.90
44990;DHT22;30723;51.206;3.326;2023-12-22T06:14:44;10.30;99.90
44990;DHT22;30723;51.206;3.326;2023-12-22T06:17:10;10.40;99.90
44990;DHT22;30723;51.206;3.326;2023-12-22T06:19:36;10.30;99.90
44990;DHT22;30723;51.206;3.326;2023-12-22T06:22:02;10.20;99.90
44990;DHT22;30723;51.206;3.326;2023-12-22T06:24:28;10.30;99.90
44990;DHT22;30723;51.206;3.326;2023-12-22T06:26:54;10.30;99.90
44990;DHT22;30723;51.206;3.326;2023-12-22T06:29:20;10.30;99.90
44990;DHT22;30723;51.206;3.326;2023-12-22T06:31:46;10.30;99.90
44990;DHT22;30723;51.206;3.326;2023-12-22T06:34:16;10.30;99.90
44990;DHT22;30723;51.206;3.326;2023-12-22T06:36:43;10.30;99.90
44990;DHT22;30723;51.206;3.326;2023-12-22T06:39:09;10.40;99.90
44990;DHT22;30723;51.206;3.326;2023-12-22T06:41:34;10.30;99.90
44990;DHT22;30723;51.206;3.326;2023-12-22T06:44:00;10.40;99.90
44990;DHT22;30723;51.206;3.326;2023-12-22T06:46:27;10.40;99.90
44990;DHT22;30723;51.206;3.326;2023-12-22T06:48:53;10.30;99.90
44990;DHT22;30723;51.206;3.326;2023-12-22T06:51:30;10.30;99.90
44990;DHT22;30723;51.206;3.326;2023-12-22T06:53:56;10.30;99.90
44990;DHT22;30723;51.206;3.326;2023-12-22T06:56:27;10.30;99.90
44990;DHT22;30723;51.206;3.326;2023-12-22T06:58:54;10.20;99.90
44990;DHT22;30723;51.206;3.326;2023-12-22T07:01:24;10.20;99.90
44990;DHT22;30723;51.206;3.326;2023-12-22T07:03:50;10.20;99.90
44990;DHT22;30723;51.206;3.326;2023-12-22T07:06:17;10.20;99.90
44990;DHT22;30723;51.206;3.326;2023-12-22T07:08:44;10.20;99.90
44990;DHT22;30723;51.206;3.326;2023-12-22T07:11:10;10.20;99.90
44990;DHT22;30723;51.206;3.326;2023-12-22T07:13:37;10.20;99.90
44990;DHT22;30723;51.206;3.326;2023-12-22T07:16:04;10.10;99.90
44990;DHT22;30723;51.206;3.326;2023-12-22T07:18:30;10.10;99.90
44990;DHT22;30723;51.206;3.326;2023-12-22T07:20:57;10.10;99.90
44990;DHT22;30723;51.206;3.326;2023-12-22T07:23:23;10.10;99.90
44990;DHT22;30723;51.206;3.326;2023-12-22T07:25:49;10.10;99.90
44990;DHT22;30723;51.206;3.326;2023-12-22T07:28:15;10.10;99.90
44990;DHT22;30723;51.206;3.326;2023-12-22T07:30:41;10.10;99.90
44990;DHT22;30723;51.206;3.326;2023-12-22T07:33:07;10.20;99.90
44990;DHT22;30723;51.206;3.326;2023-12-22T07:35:33;10.20;99.90
44990;DHT22;30723;51.206;3.326;2023-12-22T07:38:00;10.20;99.90
44990;DHT22;30723;51.206;3.326;2023-12-22T07:40:28;10.10;99.90
44990;DHT22;30723;51.206;3.326;2023-12-22T07:42:56;10.20;99.90
44990;DHT22;30723;51.206;3.326;2023-12-22T07:45:22;10.20;99.90
44990;DHT22;30723;51.206;3.326;2023-12-22T07:47:48;10.20;99.90
44990;DHT22;30723;51.206;3.326;2023-12-22T07:50:14;10.20;99.90
44990;DHT22;30723;51.206;3.326;2023-12-22T07:52:39;10.30;99.90
44990;DHT22;30723;51.206;3.326;2023-12-22T07:55:09;10.30;99.90
44990;DHT22;30723;51.206;3.326;2023-12-22T07:57:38;10.30;99.90
44990;DHT22;30723;51.206;3.326;2023-12-22T08:00:04;10.40;99.90
44990;DHT22;30723;51.206;3.326;2023-12-22T08:02:31;10.40;99.90
44990;DHT22;30723;51.206;3.326;2023-12-22T08:04:57;10.50;99.90
44990;DHT22;30723;51.206;3.326;2023-12-22T08:07:23;10.50;99.90
44990;DHT22;30723;51.206;3.326;2023-12-22T08:09:49;10.50;99.90
44990;DHT22;30723;51.206;3.326;2023-12-22T08:12:14;10.50;99.90
44990;DHT22;30723;51.206;3.326;2023-12-22T08:14:40;10.60;99.90
44990;DHT22;30723;51.206;3.326;2023-12-22T08:17:06;10.60;99.90
44990;DHT22;30723;51.206;3.326;2023-12-22T08:19:32;10.60;99.90
44990;DHT22;30723;51.206;3.326;2023-12-22T08:21:58;10.70;99.90
44990;DHT22;30723;51.206;3.326;2023-12-22T08:24:24;10.70;99.90
44990;DHT22;30723;51.206;3.326;2023-12-22T08:26:50;10.70;99.90
44990;DHT22;30723;51.206;3.326;2023-12-22T08:29:16;10.70;99.90
44990;DHT22;30723;51.206;3.326;2023-12-22T08:31:42;10.80;99.90
44990;DHT22;30723;51.206;3.326;2023-12-22T08:34:09;10.80;99.90
44990;DHT22;30723;51.206;3.326;2023-12-22T08:36:35;10.80;99.90
44990;DHT22;30723;51.206;3.326;2023-12-22T08:39:00;10.90;99.90
44990;DHT22;30723;51.206;3.326;2023-12-22T08:41:26;10.90;99.90
44990;DHT22;30723;51.206;3.326;2023-12-22T08:43:52;11.00;99.90
44990;DHT22;30723;51.206;3.326;2023-12-22T08:46:18;11.00;99.90
44990;DHT22;30723;51.206;3.326;2023-12-22T08:48:44;11.00;99.90
44990;DHT22;30723;51.206;3.326;2023-12-22T08:51:09;11.10;99.90
44990;DHT22;30723;51.206;3.326;2023-12-22T08:53:35;11.00;99.90
44990;DHT22;30723;51.206;3.326;2023-12-22T08:56:03;11.10;99.90
44990;DHT22;30723;51.206;3.326;2023-12-22T08:58:31;11.20;99.90
44990;DHT22;30723;51.206;3.326;2023-12-22T09:00:57;11.30;99.90
44990;DHT22;30723;51.206;3.326;2023-12-22T09:03:23;11.40;99.90
44990;DHT22;30723;51.206;3.326;2023-12-22T09:05:49;11.40;99.90
44990;DHT22;30723;51.206;3.326;2023-12-22T09:08:15;11.40;99.90
44990;DHT22;30723;51.206;3.326;2023-12-22T09:10:41;11.40;99.90
44990;DHT22;30723;51.206;3.326;2023-12-22T09:13:07;11.40;99.90
44990;DHT22;30723;51.206;3.326;2023-12-22T09:15:33;11.40;99.90
44990;DHT22;30723;51.206;3.326;2023-12-22T09:17:59;11.40;99.90
44990;DHT22;30723;51.206;3.326;2023-12-22T09:20:24;11.40;99.90
44990;DHT22;30723;51.206;3.326;2023-12-22T09:22:50;11.50;99.90
44990;DHT22;30723;51.206;3.326;2023-12-22T09:25:16;11.50;99.90
44990;DHT22;30723;51.206;3.326;2023-12-22T09:27:42;11.60;99.90
44990;DHT22;30723;51.206;3.326;2023-12-22T09:30:08;11.60;99.90
44990;DHT22;30723;51.206;3.326;2023-12-22T09:32:34;11.60;99.90
44990;DHT22;30723;51.206;3.326;2023-12-22T09:35:00;11.60;99.90
44990;DHT22;30723;51.206;3.326;2023-12-22T09:37:26;11.50;99.90
44990;DHT22;30723;51.206;3.326;2023-12-22T09:39:52;11.60;99.90
44990;DHT22;30723;51.206;3.326;2023-12-22T09:42:20;11.60;99.90
44990;DHT22;30723;51.206;3.326;2023-12-22T09:44:49;11.60;99.90
44990;DHT22;30723;51.206;3.326;2023-12-22T09:47:16;11.60;99.90
44990;DHT22;30723;51.206;3.326;2023-12-22T09:49:43;11.70;99.90
44990;DHT22;30723;51.206;3.326;2023-12-22T09:52:10;11.60;99.90
44990;DHT22;30723;51.206;3.326;2023-12-22T09:54:37;11.60;99.90
44990;DHT22;30723;51.206;3.326;2023-12-22T09:57:04;11.70;99.90
44990;DHT22;30723;51.206;3.326;2023-12-22T09:59:30;11.70;99.90
44990;DHT22;30723;51.206;3.326;2023-12-22T10:02:00;11.70;99.90
44990;DHT22;30723;51.206;3.326;2023-12-22T10:04:28;11.70;99.90
44990;DHT22;30723;51.206;3.326;2023-12-22T10:06:57;11.80;99.90
44990;DHT22;30723;51.206;3.326;2023-12-22T10:09:26;11.70;99.90
44990;DHT22;30723;51.206;3.326;2023-12-22T10:11:52;11.60;99.90
44990;DHT22;30723;51.206;3.326;2023-12-22T10:14:22;11.60;99.90
44990;DHT22;30723;51.206;3.326;2023-12-22T10:16:52;11.50;99.90
44990;DHT22;30723;51.206;3.326;2023-12-22T10:19:19;11.50;99.90
44990;DHT22;30723;51.206;3.326;2023-12-22T10:21:45;11.50;99.90
44990;DHT22;30723;51.206;3.326;2023-12-22T10:24:43;11.50;99.90
44990;DHT22;30723;51.206;3.326;2023-12-22T10:27:10;11.60;99.90
44990;DHT22;30723;51.206;3.326;2023-12-22T10:29:37;11.60;99.90
44990;DHT22;30723;51.206;3.326;2023-12-22T10:32:04;11.60;99.90
44990;DHT22;30723;51.206;3.326;2023-12-22T10:34:33;11.60;99.90
44990;DHT22;30723;51.206;3.326;2023-12-22T10:36:59;11.60;99.90
44990;DHT22;30723;51.206;3.326;2023-12-22T10:39:30;11.60;99.90
44990;DHT22;30723;51.206;3.326;2023-12-22T10:41:59;11.70;99.90
44990;DHT22;30723;51.206;3.326;2023-12-22T10:44:29;11.70;99.90
44990;DHT22;30723;51.206;3.326;2023-12-22T10:46:55;11.70;99.90
44990;DHT22;30723;51.206;3.326;2023-12-22T10:49:22;11.80;99.90
44990;DHT22;30723;51.206;3.326;2023-12-22T10:51:49;11.80;99.90
44990;DHT22;30723;51.206;3.326;2023-12-22T10:54:16;11.90;99.90
44990;DHT22;30723;51.206;3.326;2023-12-22T10:56:42;11.90;99.90
44990;DHT22;30723;51.206;3.326;2023-12-22T10:59:09;11.90;99.90
44990;DHT22;30723;51.206;3.326;2023-12-22T11:01:38;11.90;99.90
44990;DHT22;30723;51.206;3.326;2023-12-22T11:04:07;11.90;99.90
44990;DHT22;30723;51.206;3.326;2023-12-22T11:06:37;12.00;99.90
44990;DHT22;30723;51.206;3.326;2023-12-22T11:09:07;12.00;99.90
44990;DHT22;30723;51.206;3.326;2023-12-22T11:11:36;11.90;99.90
44990;DHT22;30723;51.206;3.326;2023-12-22T11:14:02;11.80;99.90
44990;DHT22;30723;51.206;3.326;2023-12-22T11:16:29;11.80;99.90
44990;DHT22;30723;51.206;3.326;2023-12-22T11:18:55;11.80;99.90
44990;DHT22;30723;51.206;3.326;2023-12-22T11:21:24;11.80;99.90
44990;DHT22;30723;51.206;3.326;2023-12-22T11:23:51;11.80;99.90
44990;DHT22;30723;51.206;3.326;2023-12-22T11:26:21;11.80;99.90
44990;DHT22;30723;51.206;3.326;2023-12-22T11:28:49;11.90;99.90
44990;DHT22;30723;51.206;3.326;2023-12-22T11:31:17;11.80;99.90
44990;DHT22;30723;51.206;3.326;2023-12-22T11:33:50;11.80;99.90
44990;DHT22;30723;51.206;3.326;2023-12-22T11:36:17;11.80;99.90
44990;DHT22;30723;51.206;3.326;2023-12-22T11:38:44;11.70;99.90
44990;DHT22;30723;51.206;3.326;2023-12-22T11:41:22;11.70;99.90
44990;DHT22;30723;51.206;3.326;2023-12-22T11:43:51;11.80;99.90
44990;DHT22;30723;51.206;3.326;2023-12-22T11:46:17;11.80;99.90
44990;DHT22;30723;51.206;3.326;2023-12-22T11:48:50;11.70;99.90
44990;DHT22;30723;51.206;3.326;2023-12-22T11:51:17;11.80;99.90
44990;DHT22;30723;51.206;3.326;2023-12-22T11:53:43;11.80;99.90
44990;DHT22;30723;51.206;3.326;2023-12-22T11:56:10;11.80;99.90
44990;DHT22;30723;51.206;3.326;2023-12-22T11:58:46;11.80;99.90
44990;DHT22;30723;51.206;3.326;2023-12-22T12:01:23;11.80;99.90
44990;DHT22;30723;51.206;3.326;2023-12-22T12:04:02;11.80;99.90
44990;DHT22;30723;51.206;3.326;2023-12-22T12:08:59;11.60;99.90
44990;DHT22;30723;51.206;3.326;2023-12-22T12:12:30;11.60;99.90
44990;DHT22;30723;51.206;3.326;2023-12-22T12:14:40;11.60;99.90
44990;DHT22;30723;51.206;3.326;2023-12-22T12:17:07;11.70;99.90
44990;DHT22;30723;51.206;3.326;2023-12-22T12:19:43;11.80;99.90
44990;DHT22;30723;51.206;3.326;2023-12-22T12:22:10;11.80;99.90
44990;DHT22;30723;51.206;3.326;2023-12-22T12:24:37;11.90;99.90
44990;DHT22;30723;51.206;3.326;2023-12-22T12:27:04;11.90;99.90
44990;DHT22;30723;51.206;3.326;2023-12-22T12:29:32;11.90;99.90
44990;DHT22;30723;51.206;3.326;2023-12-22T12:32:05;11.90;99.90
44990;DHT22;30723;51.206;3.326;2023-12-22T12:34:31;11.90;99.90
44990;DHT22;30723;51.206;3.326;2023-12-22T12:36:58;11.80;99.90
44990;DHT22;30723;51.206;3.326;2023-12-22T12:39:32;11.80;99.90
44990;DHT22;30723;51.206;3.326;2023-12-22T12:42:00;11.80;99.90
44990;DHT22;30723;51.206;3.326;2023-12-22T12:44:29;11.80;99.90
44990;DHT22;30723;51.206;3.326;2023-12-22T12:46:55;11.80;99.90
44990;DHT22;30723;51.206;3.326;2023-12-22T12:49:21;11.80;99.90
44990;DHT22;30723;51.206;3.326;2023-12-22T12:51:49;11.80;99.90
44990;DHT22;30723;51.206;3.326;2023-12-22T12:54:15;11.80;99.90
44990;DHT22;30723;51.206;3.326;2023-12-22T12:56:43;11.80;99.90
44990;DHT22;30723;51.206;3.326;2023-12-22T12:59:14;11.80;99.90
44990;DHT22;30723;51.206;3.326;2023-12-22T13:01:42;11.70;99.90
44990;DHT22;30723;51.206;3.326;2023-12-22T13:04:09;11.80;99.90
44990;DHT22;30723;51.206;3.326;2023-12-22T13:06:35;11.80;99.90
44990;DHT22;30723;51.206;3.326;2023-12-22T13:09:01;11.90;99.90
44990;DHT22;30723;51.206;3.326;2023-12-22T13:11:29;11.90;99.90
44990;DHT22;30723;51.206;3.326;2023-12-22T13:13:56;11.90;99.90
44990;DHT22;30723;51.206;3.326;2023-12-22T13:16:23;11.90;99.90
44990;DHT22;30723;51.206;3.326;2023-12-22T13:18:57;11.80;99.90
44990;DHT22;30723;51.206;3.326;2023-12-22T13:21:26;11.80;99.90
44990;DHT22;30723;51.206;3.326;2023-12-22T13:24:09;11.80;99.90
44990;DHT22;30723;51.206;3.326;2023-12-22T13:26:38;11.80;99.90
44990;DHT22;30723;51.206;3.326;2023-12-22T13:29:05;11.80;99.90
44990;DHT22;30723;51.206;3.326;2023-12-22T13:31:31;11.80;99.90
44990;DHT22;30723;51.206;3.326;2023-12-22T13:34:01;11.80;99.90
44990;DHT22;30723;51.206;3.326;2023-12-22T13:36:27;11.80;99.90
44990;DHT22;30723;51.206;3.326;2023-12-22T13:38:53;11.80;99.90
44990;DHT22;30723;51.206;3.326;2023-12-22T13:41:19;11.80;99.90
44990;DHT22;30723;51.206;3.326;2023-12-22T13:43:45;11.80;99.90
44990;DHT22;30723;51.206;3.326;2023-12-22T13:46:14;11.70;99.90
44990;DHT22;30723;51.206;3.326;2023-12-22T13:48:43;11.70;99.90
44990;DHT22;30723;51.206;3.326;2023-12-22T13:51:09;11.80;99.90
44990;DHT22;30723;51.206;3.326;2023-12-22T13:53:46;11.70;99.90
44990;DHT22;30723;51.206;3.326;2023-12-22T13:56:12;11.70;99.90
44990;DHT22;30723;51.206;3.326;2023-12-22T13:58:46;11.80;99.90
44990;DHT22;30723;51.206;3.326;2023-12-22T14:01:16;11.70;99.90
44990;DHT22;30723;51.206;3.326;2023-12-22T14:03:45;11.80;99.90
44990;DHT22;30723;51.206;3.326;2023-12-22T14:06:14;11.80;99.90
44990;DHT22;30723;51.206;3.326;2023-12-22T14:08:40;11.80;99.90
44990;DHT22;30723;51.206;3.326;2023-12-22T14:11:07;11.80;99.90
44990;DHT22;30723;51.206;3.326;2023-12-22T14:13:33;11.80;99.90
44990;DHT22;30723;51.206;3.326;2023-12-22T14:16:05;11.80;99.90
44990;DHT22;30723;51.206;3.326;2023-12-22T14:18:31;11.80;99.90
44990;DHT22;30723;51.206;3.326;2023-12-22T14:20:57;11.80;99.90
44990;DHT22;30723;51.206;3.326;2023-12-22T14:23:24;11.80;99.90
44990;DHT22;30723;51.206;3.326;2023-12-22T14:25:50;11.80;99.90
44990;DHT22;30723;51.206;3.326;2023-12-22T14:28:15;11.80;99.90
44990;DHT22;30723;51.206;3.326;2023-12-22T14:30:41;11.80;99.90
44990;DHT22;30723;51.206;3.326;2023-12-22T14:33:08;11.80;99.90
44990;DHT22;30723;51.206;3.326;2023-12-22T14:35:34;11.80;99.90
44990;DHT22;30723;51.206;3.326;2023-12-22T14:37:59;11.80;99.90
44990;DHT22;30723;51.206;3.326;2023-12-22T14:40:25;11.80;99.90
44990;DHT22;30723;51.206;3.326;2023-12-22T14:42:51;11.80;99.90
44990;DHT22;30723;51.206;3.326;2023-12-22T14:45:16;11.80;99.90
44990;DHT22;30723;51.206;3.326;2023-12-22T14:47:42;11.90;99.90
44990;DHT22;30723;51.206;3.326;2023-12-22T14:50:08;11.80;99.90
44990;DHT22;30723;51.206;3.326;2023-12-22T14:52:34;11.80;99.90
44990;DHT22;30723;51.206;3.326;2023-12-22T14:55:01;11.80;99.90
44990;DHT22;30723;51.206;3.326;2023-12-22T14:57:27;11.80;99.90
44990;DHT22;30723;51.206;3.326;2023-12-22T14:59:56;11.80;99.90
44990;DHT22;30723;51.206;3.326;2023-12-22T15:02:22;11.80;99.90
44990;DHT22;30723;51.206;3.326;2023-12-22T15:04:48;11.80;99.90
44990;DHT22;30723;51.206;3.326;2023-12-22T15:07:17;11.70;99.90
44990;DHT22;30723;51.206;3.326;2023-12-22T15:09:43;11.70;99.90
44990;DHT22;30723;51.206;3.326;2023-12-22T15:12:11;11.70;99.90
44990;DHT22;30723;51.206;3.326;2023-12-22T15:14:37;11.80;99.90
44990;DHT22;30723;51.206;3.326;2023-12-22T15:17:03;11.70;99.90
44990;DHT22;30723;51.206;3.326;2023-12-22T15:19:28;11.70;99.90
44990;DHT22;30723;51.206;3.326;2023-12-22T15:21:54;11.70;99.90
44990;DHT22;30723;51.206;3.326;2023-12-22T15:24:20;11.70;99.90
44990;DHT22;30723;51.206;3.326;2023-12-22T15:26:46;11.70;99.90
44990;DHT22;30723;51.206;3.326;2023-12-22T15:29:12;11.70;99.90
44990;DHT22;30723;51.206;3.326;2023-12-22T15:31:38;11.70;99.90
44990;DHT22;30723;51.206;3.326;2023-12-22T15:34:04;11.70;99.90
44990;DHT22;30723;51.206;3.326;2023-12-22T15:36:30;11.60;99.90